sensor_id;sensor_type;location;lat;lon;timestamp;P1;durP1;ratioP1;P2;durP2;ratioP2
4359;SDS011;2193;47.980;7.660;2022-08-19T00:00:37;26.10;;;18.13;;
4359;SDS011;2193;47.980;7.660;2022-08-19T00:03:03;27.70;;;18.43;;
4359;SDS011;2193;47.980;7.660;2022-08-19T00:05:28;29.50;;;18.50;;
4359;SDS011;2193;47.980;7.660;2022-08-19T00:07:53;24.60;;;18.77;;
4359;SDS011;2193;47.980;7.660;2022-08-19T00:10:19;25.23;;;17.33;;
4359;SDS011;2193;47.980;7.660;2022-08-19T00:12:44;23.93;;;17.77;;
4359;SDS011;2193;47.980;7.660;2022-08-19T00:15:12;23.10;;;17.70;;
4359;SDS011;2193;47.980;7.660;2022-08-19T00:17:44;26.07;;;19.90;;
4359;SDS011;2193;47.980;7.660;2022-08-19T00:20:10;29.13;;;19.03;;
4359;SDS011;2193;47.980;7.660;2022-08-19T00:22:36;25.67;;;18.73;;
4359;SDS011;2193;47.980;7.660;2022-08-19T00:25:01;24.33;;;19.00;;
4359;SDS011;2193;47.980;7.660;2022-08-19T00:27:27;27.33;;;20.23;;
4359;SDS011;2193;47.980;7.660;2022-08-19T00:29:52;24.43;;;19.30;;
4359;SDS011;2193;47.980;7.660;2022-08-19T00:32:17;38.10;;;24.23;;
4359;SDS011;2193;47.980;7.660;2022-08-19T00:34:43;35.13;;;23.20;;
4359;SDS011;2193;47.980;7.660;2022-08-19T00:37:08;38.50;;;25.37;;
4359;SDS011;2193;47.980;7.660;2022-08-19T00:39:33;37.93;;;24.47;;
4359;SDS011;2193;47.980;7.660;2022-08-19T00:41:58;36.60;;;23.47;;
4359;SDS011;2193;47.980;7.660;2022-08-19T00:44:26;33.97;;;23.30;;
4359;SDS011;2193;47.980;7.660;2022-08-19T00:46:52;39.10;;;24.00;;
4359;SDS011;2193;47.980;7.660;2022-08-19T00:49:35;33.50;;;25.50;;
4359;SDS011;2193;47.980;7.660;2022-08-19T00:52:23;34.53;;;23.57;;
4359;SDS011;2193;47.980;7.660;2022-08-19T00:54:47;35.00;;;23.10;;
4359;SDS011;2193;47.980;7.660;2022-08-19T00:57:14;30.07;;;23.43;;
4359;SDS011;2193;47.980;7.660;2022-08-19T00:59:40;33.23;;;23.77;;
4359;SDS011;2193;47.980;7.660;2022-08-19T01:02:08;36.13;;;23.53;;
4359;SDS011;2193;47.980;7.660;2022-08-19T01:04:33;33.67;;;24.43;;
4359;SDS011;2193;47.980;7.660;2022-08-19T01:06:58;41.33;;;26.10;;
4359;SDS011;2193;47.980;7.660;2022-08-19T01:09:24;38.83;;;26.80;;
4359;SDS011;2193;47.980;7.660;2022-08-19T01:11:49;44.07;;;29.60;;
4359;SDS011;2193;47.980;7.660;2022-08-19T01:14:14;50.93;;;30.90;;
4359;SDS011;2193;47.980;7.660;2022-08-19T01:16:41;56.70;;;32.67;;
4359;SDS011;2193;47.980;7.660;2022-08-19T01:19:18;56.00;;;31.63;;
4359;SDS011;2193;47.980;7.660;2022-08-19T01:21:52;44.10;;;29.17;;
4359;SDS011;2193;47.980;7.660;2022-08-19T01:24:20;49.30;;;31.17;;
4359;SDS011;2193;47.980;7.660;2022-08-19T01:26:46;54.67;;;32.90;;
4359;SDS011;2193;47.980;7.660;2022-08-19T01:29:11;55.30;;;34.40;;
4359;SDS011;2193;47.980;7.660;2022-08-19T01:31:37;43.10;;;31.10;;
4359;SDS011;2193;47.980;7.660;2022-08-19T01:34:04;48.70;;;31.23;;
4359;SDS011;2193;47.980;7.660;2022-08-19T01:36:37;53.97;;;30.77;;
4359;SDS011;2193;47.980;7.660;2022-08-19T01:39:07;43.70;;;27.10;;
4359;SDS011;2193;47.980;7.660;2022-08-19T01:41:32;37.30;;;27.10;;
4359;SDS011;2193;47.980;7.660;2022-08-19T01:43:58;33.40;;;23.87;;
4359;SDS011;2193;47.980;7.660;2022-08-19T01:46:23;36.60;;;22.70;;
4359;SDS011;2193;47.980;7.660;2022-08-19T01:48:48;34.00;;;22.40;;
4359;SDS011;2193;47.980;7.660;2022-08-19T01:51:14;30.07;;;23.40;;
4359;SDS011;2193;47.980;7.660;2022-08-19T01:53:39;27.57;;;20.50;;
4359;SDS011;2193;47.980;7.660;2022-08-19T01:56:04;32.67;;;20.93;;
4359;SDS011;2193;47.980;7.660;2022-08-19T01:58:32;26.13;;;19.70;;
4359;SDS011;2193;47.980;7.660;2022-08-19T02:01:00;33.83;;;21.93;;
4359;SDS011;2193;47.980;7.660;2022-08-19T02:03:26;27.60;;;22.03;;
4359;SDS011;2193;47.980;7.660;2022-08-19T02:05:57;32.10;;;20.30;;
4359;SDS011;2193;47.980;7.660;2022-08-19T02:08:24;33.63;;;21.47;;
4359;SDS011;2193;47.980;7.660;2022-08-19T02:10:49;28.83;;;21.50;;
4359;SDS011;2193;47.980;7.660;2022-08-19T02:13:15;26.40;;;19.30;;
4359;SDS011;2193;47.980;7.660;2022-08-19T02:15:40;28.00;;;20.90;;
4359;SDS011;2193;47.980;7.660;2022-08-19T02:18:05;26.53;;;22.30;;
4359;SDS011;2193;47.980;7.660;2022-08-19T02:20:31;24.33;;;19.80;;
4359;SDS011;2193;47.980;7.660;2022-08-19T02:22:56;27.70;;;19.83;;
4359;SDS011;2193;47.980;7.660;2022-08-19T02:25:21;28.03;;;21.37;;
4359;SDS011;2193;47.980;7.660;2022-08-19T02:27:46;31.63;;;19.47;;
4359;SDS011;2193;47.980;7.660;2022-08-19T02:30:13;28.03;;;19.93;;
4359;SDS011;2193;47.980;7.660;2022-08-19T02:32:38;28.97;;;19.90;;
4359;SDS011;2193;47.980;7.660;2022-08-19T02:35:04;26.73;;;18.50;;
4359;SDS011;2193;47.980;7.660;2022-08-19T02:37:29;24.27;;;19.50;;
4359;SDS011;2193;47.980;7.660;2022-08-19T02:40:13;27.70;;;18.77;;
4359;SDS011;2193;47.980;7.660;2022-08-19T02:42:40;24.90;;;18.67;;
4359;SDS011;2193;47.980;7.660;2022-08-19T02:45:06;25.50;;;19.17;;
4359;SDS011;2193;47.980;7.660;2022-08-19T02:47:31;25.47;;;19.77;;
4359;SDS011;2193;47.980;7.660;2022-08-19T02:49:56;29.57;;;18.83;;
4359;SDS011;2193;47.980;7.660;2022-08-19T02:52:21;25.80;;;19.57;;
4359;SDS011;2193;47.980;7.660;2022-08-19T02:54:48;30.67;;;21.50;;
4359;SDS011;2193;47.980;7.660;2022-08-19T02:57:13;26.60;;;20.07;;
4359;SDS011;2193;47.980;7.660;2022-08-19T02:59:38;30.33;;;20.93;;
4359;SDS011;2193;47.980;7.660;2022-08-19T03:02:04;35.20;;;20.90;;
4359;SDS011;2193;47.980;7.660;2022-08-19T03:04:29;28.00;;;19.80;;
4359;SDS011;2193;47.980;7.660;2022-08-19T03:06:55;28.07;;;20.30;;
4359;SDS011;2193;47.980;7.660;2022-08-19T03:09:20;30.97;;;20.90;;
4359;SDS011;2193;47.980;7.660;2022-08-19T03:11:45;30.63;;;20.70;;
4359;SDS011;2193;47.980;7.660;2022-08-19T03:14:10;34.90;;;21.30;;
4359;SDS011;2193;47.980;7.660;2022-08-19T03:16:46;37.83;;;21.43;;
4359;SDS011;2193;47.980;7.660;2022-08-19T03:19:12;29.20;;;21.20;;
4359;SDS011;2193;47.980;7.660;2022-08-19T03:21:37;28.33;;;20.50;;
4359;SDS011;2193;47.980;7.660;2022-08-19T03:24:03;33.53;;;21.17;;
4359;SDS011;2193;47.980;7.660;2022-08-19T03:26:29;29.40;;;18.93;;
4359;SDS011;2193;47.980;7.660;2022-08-19T03:28:54;28.73;;;19.50;;
4359;SDS011;2193;47.980;7.660;2022-08-19T03:31:21;30.03;;;20.87;;
4359;SDS011;2193;47.980;7.660;2022-08-19T03:33:47;27.13;;;20.37;;
4359;SDS011;2193;47.980;7.660;2022-08-19T03:36:18;22.20;;;18.53;;
4359;SDS011;2193;47.980;7.660;2022-08-19T03:38:46;24.83;;;19.40;;
4359;SDS011;2193;47.980;7.660;2022-08-19T03:41:14;27.63;;;19.97;;
4359;SDS011;2193;47.980;7.660;2022-08-19T03:43:40;27.07;;;20.63;;
4359;SDS011;2193;47.980;7.660;2022-08-19T03:46:07;30.80;;;19.67;;
4359;SDS011;2193;47.980;7.660;2022-08-19T03:48:33;23.20;;;19.57;;
4359;SDS011;2193;47.980;7.660;2022-08-19T03:50:59;26.87;;;19.03;;
4359;SDS011;2193;47.980;7.660;2022-08-19T03:53:25;28.07;;;19.43;;
4359;SDS011;2193;47.980;7.660;2022-08-19T03:55:51;24.17;;;18.70;;
4359;SDS011;2193;47.980;7.660;2022-08-19T03:58:16;33.03;;;19.90;;
4359;SDS011;2193;47.980;7.660;2022-08-19T04:00:42;30.10;;;19.73;;
4359;SDS011;2193;47.980;7.660;2022-08-19T04:03:07;25.40;;;20.47;;
4359;SDS011;2193;47.980;7.660;2022-08-19T04:05:32;26.53;;;21.17;;
4359;SDS011;2193;47.980;7.660;2022-08-19T04:07:58;23.97;;;20.10;;
4359;SDS011;2193;47.980;7.660;2022-08-19T04:10:23;22.87;;;18.70;;
4359;SDS011;2193;47.980;7.660;2022-08-19T04:12:49;25.63;;;20.33;;
4359;SDS011;2193;47.980;7.660;2022-08-19T04:15:14;25.40;;;17.73;;
4359;SDS011;2193;47.980;7.660;2022-08-19T04:17:40;24.97;;;18.87;;
4359;SDS011;2193;47.980;7.660;2022-08-19T04:20:05;26.30;;;19.07;;
4359;SDS011;2193;47.980;7.660;2022-08-19T04:22:31;25.63;;;20.23;;
4359;SDS011;2193;47.980;7.660;2022-08-19T04:24:56;25.03;;;19.53;;
4359;SDS011;2193;47.980;7.660;2022-08-19T04:27:21;23.60;;;19.67;;
4359;SDS011;2193;47.980;7.660;2022-08-19T04:29:46;27.20;;;19.73;;
4359;SDS011;2193;47.980;7.660;2022-08-19T04:32:12;23.83;;;19.87;;
4359;SDS011;2193;47.980;7.660;2022-08-19T04:34:40;27.70;;;21.40;;
4359;SDS011;2193;47.980;7.660;2022-08-19T04:37:06;25.87;;;19.93;;
4359;SDS011;2193;47.980;7.660;2022-08-19T04:39:40;27.50;;;20.53;;
4359;SDS011;2193;47.980;7.660;2022-08-19T04:42:24;28.50;;;21.30;;
4359;SDS011;2193;47.980;7.660;2022-08-19T04:45:06;25.00;;;20.03;;
4359;SDS011;2193;47.980;7.660;2022-08-19T04:47:31;28.70;;;21.63;;
4359;SDS011;2193;47.980;7.660;2022-08-19T04:49:57;55.57;;;21.90;;
4359;SDS011;2193;47.980;7.660;2022-08-19T04:52:23;29.80;;;22.00;;
4359;SDS011;2193;47.980;7.660;2022-08-19T04:54:48;24.70;;;21.47;;
4359;SDS011;2193;47.980;7.660;2022-08-19T04:57:13;29.80;;;21.30;;
4359;SDS011;2193;47.980;7.660;2022-08-19T04:59:39;26.87;;;20.47;;
4359;SDS011;2193;47.980;7.660;2022-08-19T05:02:06;20.90;;;17.07;;
4359;SDS011;2193;47.980;7.660;2022-08-19T05:04:31;24.23;;;18.37;;
4359;SDS011;2193;47.980;7.660;2022-08-19T05:06:58;25.07;;;18.80;;
4359;SDS011;2193;47.980;7.660;2022-08-19T05:09:24;25.10;;;19.73;;
4359;SDS011;2193;47.980;7.660;2022-08-19T05:11:49;30.07;;;20.03;;
4359;SDS011;2193;47.980;7.660;2022-08-19T05:14:17;21.80;;;18.00;;
4359;SDS011;2193;47.980;7.660;2022-08-19T05:16:43;23.20;;;16.67;;
4359;SDS011;2193;47.980;7.660;2022-08-19T05:19:08;20.10;;;17.43;;
4359;SDS011;2193;47.980;7.660;2022-08-19T05:21:52;23.97;;;17.60;;
4359;SDS011;2193;47.980;7.660;2022-08-19T05:24:37;23.87;;;17.30;;
4359;SDS011;2193;47.980;7.660;2022-08-19T05:27:02;24.67;;;17.73;;
4359;SDS011;2193;47.980;7.660;2022-08-19T05:29:30;25.53;;;18.60;;
4359;SDS011;2193;47.980;7.660;2022-08-19T05:31:59;22.47;;;18.20;;
4359;SDS011;2193;47.980;7.660;2022-08-19T05:34:25;21.40;;;19.10;;
4359;SDS011;2193;47.980;7.660;2022-08-19T05:36:55;23.70;;;18.50;;
4359;SDS011;2193;47.980;7.660;2022-08-19T05:39:22;21.87;;;18.33;;
4359;SDS011;2193;47.980;7.660;2022-08-19T05:41:49;22.30;;;18.40;;
4359;SDS011;2193;47.980;7.660;2022-08-19T05:44:15;24.33;;;16.80;;
4359;SDS011;2193;47.980;7.660;2022-08-19T05:46:42;20.50;;;16.93;;
4359;SDS011;2193;47.980;7.660;2022-08-19T05:49:08;25.93;;;18.37;;
4359;SDS011;2193;47.980;7.660;2022-08-19T05:51:34;23.73;;;18.53;;
4359;SDS011;2193;47.980;7.660;2022-08-19T05:54:01;26.43;;;19.07;;
4359;SDS011;2193;47.980;7.660;2022-08-19T05:56:26;25.30;;;19.10;;
4359;SDS011;2193;47.980;7.660;2022-08-19T05:58:51;25.53;;;19.50;;
4359;SDS011;2193;47.980;7.660;2022-08-19T06:01:18;23.50;;;18.80;;
4359;SDS011;2193;47.980;7.660;2022-08-19T06:03:43;22.63;;;18.47;;
4359;SDS011;2193;47.980;7.660;2022-08-19T06:06:10;23.60;;;19.00;;
4359;SDS011;2193;47.980;7.660;2022-08-19T06:08:36;28.20;;;19.20;;
4359;SDS011;2193;47.980;7.660;2022-08-19T06:13:43;22.63;;;16.90;;
4359;SDS011;2193;47.980;7.660;2022-08-19T06:16:08;23.20;;;17.50;;
4359;SDS011;2193;47.980;7.660;2022-08-19T06:18:33;24.40;;;17.67;;
4359;SDS011;2193;47.980;7.660;2022-08-19T06:20:59;29.00;;;17.57;;
4359;SDS011;2193;47.980;7.660;2022-08-19T06:23:25;23.20;;;17.07;;
4359;SDS011;2193;47.980;7.660;2022-08-19T06:25:50;20.47;;;17.50;;
4359;SDS011;2193;47.980;7.660;2022-08-19T06:28:15;21.10;;;17.47;;
4359;SDS011;2193;47.980;7.660;2022-08-19T06:30:41;21.17;;;16.87;;
4359;SDS011;2193;47.980;7.660;2022-08-19T06:33:06;20.87;;;18.23;;
4359;SDS011;2193;47.980;7.660;2022-08-19T06:35:31;28.00;;;18.20;;
4359;SDS011;2193;47.980;7.660;2022-08-19T06:37:57;18.40;;;16.27;;
4359;SDS011;2193;47.980;7.660;2022-08-19T06:40:22;18.50;;;16.20;;
4359;SDS011;2193;47.980;7.660;2022-08-19T06:42:47;27.70;;;17.60;;
4359;SDS011;2193;47.980;7.660;2022-08-19T06:45:13;25.93;;;16.73;;
4359;SDS011;2193;47.980;7.660;2022-08-19T06:47:40;21.20;;;16.80;;
4359;SDS011;2193;47.980;7.660;2022-08-19T06:50:13;23.00;;;17.70;;
4359;SDS011;2193;47.980;7.660;2022-08-19T06:52:38;22.27;;;16.63;;
4359;SDS011;2193;47.980;7.660;2022-08-19T06:55:04;28.03;;;17.27;;
4359;SDS011;2193;47.980;7.660;2022-08-19T06:57:29;20.87;;;16.50;;
4359;SDS011;2193;47.980;7.660;2022-08-19T06:59:57;20.03;;;16.20;;
4359;SDS011;2193;47.980;7.660;2022-08-19T07:02:24;22.50;;;16.90;;
4359;SDS011;2193;47.980;7.660;2022-08-19T07:04:51;23.47;;;16.17;;
4359;SDS011;2193;47.980;7.660;2022-08-19T07:07:16;22.77;;;15.97;;
4359;SDS011;2193;47.980;7.660;2022-08-19T07:09:42;19.20;;;16.37;;
4359;SDS011;2193;47.980;7.660;2022-08-19T07:12:09;25.50;;;15.37;;
4359;SDS011;2193;47.980;7.660;2022-08-19T07:14:35;20.23;;;14.07;;
4359;SDS011;2193;47.980;7.660;2022-08-19T07:17:02;34.27;;;14.70;;
4359;SDS011;2193;47.980;7.660;2022-08-19T07:19:28;17.70;;;13.80;;
4359;SDS011;2193;47.980;7.660;2022-08-19T07:21:54;24.63;;;15.10;;
4359;SDS011;2193;47.980;7.660;2022-08-19T07:24:20;20.37;;;14.50;;
4359;SDS011;2193;47.980;7.660;2022-08-19T07:26:48;20.53;;;15.00;;
4359;SDS011;2193;47.980;7.660;2022-08-19T07:29:13;17.43;;;14.60;;
4359;SDS011;2193;47.980;7.660;2022-08-19T07:31:38;20.50;;;14.47;;
4359;SDS011;2193;47.980;7.660;2022-08-19T07:34:05;18.13;;;15.07;;
4359;SDS011;2193;47.980;7.660;2022-08-19T07:36:35;16.80;;;14.53;;
4359;SDS011;2193;47.980;7.660;2022-08-19T07:39:02;19.53;;;15.60;;
4359;SDS011;2193;47.980;7.660;2022-08-19T07:41:29;22.80;;;15.30;;
4359;SDS011;2193;47.980;7.660;2022-08-19T07:43:55;17.73;;;15.47;;
4359;SDS011;2193;47.980;7.660;2022-08-19T07:46:20;21.33;;;15.73;;
4359;SDS011;2193;47.980;7.660;2022-08-19T07:48:46;19.23;;;14.80;;
4359;SDS011;2193;47.980;7.660;2022-08-19T07:51:12;24.20;;;15.17;;
4359;SDS011;2193;47.980;7.660;2022-08-19T07:53:37;18.57;;;16.10;;
4359;SDS011;2193;47.980;7.660;2022-08-19T07:56:03;15.73;;;13.90;;
4359;SDS011;2193;47.980;7.660;2022-08-19T07:58:32;18.33;;;13.90;;
4359;SDS011;2193;47.980;7.660;2022-08-19T08:00:58;17.20;;;15.10;;
4359;SDS011;2193;47.980;7.660;2022-08-19T08:03:23;19.27;;;16.37;;
4359;SDS011;2193;47.980;7.660;2022-08-19T08:06:08;19.57;;;16.10;;
4359;SDS011;2193;47.980;7.660;2022-08-19T08:08:52;21.70;;;16.80;;
4359;SDS011;2193;47.980;7.660;2022-08-19T08:11:36;23.57;;;16.93;;
4359;SDS011;2193;47.980;7.660;2022-08-19T08:14:02;18.00;;;15.80;;
4359;SDS011;2193;47.980;7.660;2022-08-19T08:16:29;18.43;;;16.13;;
4359;SDS011;2193;47.980;7.660;2022-08-19T08:18:56;21.53;;;16.47;;
4359;SDS011;2193;47.980;7.660;2022-08-19T08:21:21;19.63;;;16.20;;
4359;SDS011;2193;47.980;7.660;2022-08-19T08:23:46;20.90;;;15.40;;
4359;SDS011;2193;47.980;7.660;2022-08-19T08:26:11;18.70;;;16.73;;
4359;SDS011;2193;47.980;7.660;2022-08-19T08:28:39;21.23;;;16.87;;
4359;SDS011;2193;47.980;7.660;2022-08-19T08:31:04;20.30;;;17.47;;
4359;SDS011;2193;47.980;7.660;2022-08-19T08:33:29;20.13;;;16.47;;
4359;SDS011;2193;47.980;7.660;2022-08-19T08:35:55;22.60;;;17.77;;
4359;SDS011;2193;47.980;7.660;2022-08-19T08:38:20;22.33;;;17.93;;
4359;SDS011;2193;47.980;7.660;2022-08-19T08:40:47;23.23;;;18.33;;
4359;SDS011;2193;47.980;7.660;2022-08-19T08:46:13;23.97;;;19.10;;
4359;SDS011;2193;47.980;7.660;2022-08-19T08:48:51;23.53;;;20.17;;
4359;SDS011;2193;47.980;7.660;2022-08-19T08:54:14;29.53;;;20.27;;
4359;SDS011;2193;47.980;7.660;2022-08-19T08:56:43;23.73;;;19.73;;
4359;SDS011;2193;47.980;7.660;2022-08-19T08:59:26;23.37;;;20.27;;
4359;SDS011;2193;47.980;7.660;2022-08-19T09:01:52;24.53;;;18.40;;
4359;SDS011;2193;47.980;7.660;2022-08-19T09:04:18;25.53;;;20.97;;
4359;SDS011;2193;47.980;7.660;2022-08-19T09:07:17;26.20;;;21.00;;
4359;SDS011;2193;47.980;7.660;2022-08-19T09:09:37;25.23;;;19.40;;
4359;SDS011;2193;47.980;7.660;2022-08-19T09:12:15;25.13;;;21.23;;
4359;SDS011;2193;47.980;7.660;2022-08-19T09:14:47;25.10;;;20.40;;
4359;SDS011;2193;47.980;7.660;2022-08-19T09:17:13;25.17;;;20.83;;
4359;SDS011;2193;47.980;7.660;2022-08-19T09:19:52;25.63;;;19.97;;
4359;SDS011;2193;47.980;7.660;2022-08-19T09:22:19;25.63;;;20.50;;
4359;SDS011;2193;47.980;7.660;2022-08-19T09:24:47;24.80;;;20.40;;
4359;SDS011;2193;47.980;7.660;2022-08-19T09:27:13;24.03;;;20.90;;
4359;SDS011;2193;47.980;7.660;2022-08-19T09:29:38;28.07;;;21.37;;
4359;SDS011;2193;47.980;7.660;2022-08-19T09:32:03;29.10;;;21.43;;
4359;SDS011;2193;47.980;7.660;2022-08-19T09:34:28;34.77;;;22.00;;
4359;SDS011;2193;47.980;7.660;2022-08-19T09:36:54;26.70;;;22.53;;
4359;SDS011;2193;47.980;7.660;2022-08-19T09:39:23;25.83;;;22.00;;
4359;SDS011;2193;47.980;7.660;2022-08-19T09:41:48;24.80;;;21.67;;
4359;SDS011;2193;47.980;7.660;2022-08-19T09:44:14;28.20;;;21.00;;
4359;SDS011;2193;47.980;7.660;2022-08-19T09:46:39;33.60;;;22.37;;
4359;SDS011;2193;47.980;7.660;2022-08-19T09:49:05;33.13;;;22.10;;
4359;SDS011;2193;47.980;7.660;2022-08-19T09:51:31;24.83;;;22.03;;
4359;SDS011;2193;47.980;7.660;2022-08-19T09:53:58;28.73;;;22.50;;
4359;SDS011;2193;47.980;7.660;2022-08-19T09:56:24;23.80;;;19.40;;
4359;SDS011;2193;47.980;7.660;2022-08-19T09:58:49;28.40;;;23.50;;
4359;SDS011;2193;47.980;7.660;2022-08-19T10:01:18;28.00;;;22.10;;
4359;SDS011;2193;47.980;7.660;2022-08-19T10:03:44;28.30;;;22.20;;
4359;SDS011;2193;47.980;7.660;2022-08-19T10:06:11;33.23;;;24.77;;
4359;SDS011;2193;47.980;7.660;2022-08-19T10:08:36;29.20;;;21.83;;
4359;SDS011;2193;47.980;7.660;2022-08-19T10:11:02;29.13;;;23.67;;
4359;SDS011;2193;47.980;7.660;2022-08-19T10:13:29;31.00;;;23.30;;
4359;SDS011;2193;47.980;7.660;2022-08-19T10:15:56;28.70;;;23.03;;
4359;SDS011;2193;47.980;7.660;2022-08-19T10:18:22;26.73;;;22.47;;
4359;SDS011;2193;47.980;7.660;2022-08-19T10:20:47;28.97;;;23.23;;
4359;SDS011;2193;47.980;7.660;2022-08-19T10:23:13;33.30;;;23.30;;
4359;SDS011;2193;47.980;7.660;2022-08-19T10:25:40;26.53;;;21.67;;
4359;SDS011;2193;47.980;7.660;2022-08-19T10:28:05;27.80;;;22.80;;
4359;SDS011;2193;47.980;7.660;2022-08-19T10:30:31;33.53;;;23.60;;
4359;SDS011;2193;47.980;7.660;2022-08-19T10:32:56;31.63;;;23.17;;
4359;SDS011;2193;47.980;7.660;2022-08-19T10:35:21;30.80;;;22.73;;
4359;SDS011;2193;47.980;7.660;2022-08-19T10:37:46;28.60;;;23.37;;
4359;SDS011;2193;47.980;7.660;2022-08-19T10:40:12;28.30;;;21.87;;
4359;SDS011;2193;47.980;7.660;2022-08-19T10:42:37;28.00;;;22.57;;
4359;SDS011;2193;47.980;7.660;2022-08-19T10:45:03;27.27;;;22.87;;
4359;SDS011;2193;47.980;7.660;2022-08-19T10:47:28;30.97;;;24.50;;
4359;SDS011;2193;47.980;7.660;2022-08-19T10:49:54;27.90;;;22.87;;
4359;SDS011;2193;47.980;7.660;2022-08-19T10:52:45;24.30;;;21.57;;
4359;SDS011;2193;47.980;7.660;2022-08-19T10:55:10;26.90;;;22.30;;
4359;SDS011;2193;47.980;7.660;2022-08-19T10:57:54;25.70;;;22.27;;
4359;SDS011;2193;47.980;7.660;2022-08-19T11:00:20;26.43;;;23.30;;
4359;SDS011;2193;47.980;7.660;2022-08-19T11:02:45;28.40;;;22.67;;
4359;SDS011;2193;47.980;7.660;2022-08-19T11:05:11;27.27;;;22.20;;
4359;SDS011;2193;47.980;7.660;2022-08-19T11:07:38;25.07;;;22.33;;
4359;SDS011;2193;47.980;7.660;2022-08-19T11:10:03;25.40;;;22.33;;
4359;SDS011;2193;47.980;7.660;2022-08-19T11:12:29;27.37;;;22.93;;
4359;SDS011;2193;47.980;7.660;2022-08-19T11:14:54;26.40;;;22.20;;
4359;SDS011;2193;47.980;7.660;2022-08-19T11:17:19;28.93;;;22.90;;
4359;SDS011;2193;47.980;7.660;2022-08-19T11:19:45;27.90;;;20.70;;
4359;SDS011;2193;47.980;7.660;2022-08-19T11:22:11;30.00;;;22.97;;
4359;SDS011;2193;47.980;7.660;2022-08-19T11:24:36;30.40;;;21.83;;
4359;SDS011;2193;47.980;7.660;2022-08-19T11:27:06;23.90;;;21.40;;
4359;SDS011;2193;47.980;7.660;2022-08-19T11:29:32;25.47;;;22.00;;
4359;SDS011;2193;47.980;7.660;2022-08-19T11:31:59;29.23;;;22.40;;
4359;SDS011;2193;47.980;7.660;2022-08-19T11:34:26;27.60;;;23.77;;
4359;SDS011;2193;47.980;7.660;2022-08-19T11:36:52;27.37;;;22.90;;
4359;SDS011;2193;47.980;7.660;2022-08-19T11:39:20;31.60;;;23.03;;
4359;SDS011;2193;47.980;7.660;2022-08-19T11:41:45;28.23;;;23.30;;
4359;SDS011;2193;47.980;7.660;2022-08-19T11:44:11;25.47;;;22.40;;
4359;SDS011;2193;47.980;7.660;2022-08-19T11:46:39;23.33;;;20.87;;
4359;SDS011;2193;47.980;7.660;2022-08-19T11:49:05;29.50;;;23.17;;
4359;SDS011;2193;47.980;7.660;2022-08-19T11:51:31;27.30;;;23.80;;
4359;SDS011;2193;47.980;7.660;2022-08-19T11:53:57;26.00;;;23.00;;
4359;SDS011;2193;47.980;7.660;2022-08-19T11:56:22;29.43;;;22.37;;
4359;SDS011;2193;47.980;7.660;2022-08-19T11:58:49;25.03;;;22.43;;
4359;SDS011;2193;47.980;7.660;2022-08-19T12:01:15;27.50;;;22.30;;
4359;SDS011;2193;47.980;7.660;2022-08-19T12:03:41;27.07;;;21.53;;
4359;SDS011;2193;47.980;7.660;2022-08-19T12:06:08;28.77;;;23.37;;
4359;SDS011;2193;47.980;7.660;2022-08-19T12:08:33;32.00;;;22.57;;
4359;SDS011;2193;47.980;7.660;2022-08-19T12:10:58;28.90;;;24.60;;
4359;SDS011;2193;47.980;7.660;2022-08-19T12:13:26;26.00;;;23.20;;
4359;SDS011;2193;47.980;7.660;2022-08-19T12:15:52;26.70;;;23.40;;
4359;SDS011;2193;47.980;7.660;2022-08-19T12:18:18;40.23;;;25.07;;
4359;SDS011;2193;47.980;7.660;2022-08-19T12:20:43;29.07;;;22.93;;
4359;SDS011;2193;47.980;7.660;2022-08-19T12:23:09;30.07;;;24.90;;
4359;SDS011;2193;47.980;7.660;2022-08-19T12:25:34;25.50;;;21.50;;
4359;SDS011;2193;47.980;7.660;2022-08-19T12:28:00;26.13;;;22.60;;
4359;SDS011;2193;47.980;7.660;2022-08-19T12:30:25;28.03;;;20.93;;
4359;SDS011;2193;47.980;7.660;2022-08-19T12:32:50;23.60;;;19.30;;
4359;SDS011;2193;47.980;7.660;2022-08-19T12:35:16;19.57;;;17.60;;
4359;SDS011;2193;47.980;7.660;2022-08-19T12:37:41;24.50;;;20.90;;
4359;SDS011;2193;47.980;7.660;2022-08-19T12:40:09;29.60;;;22.67;;
4359;SDS011;2193;47.980;7.660;2022-08-19T12:42:36;29.20;;;23.10;;
4359;SDS011;2193;47.980;7.660;2022-08-19T12:45:02;26.77;;;22.70;;
4359;SDS011;2193;47.980;7.660;2022-08-19T12:47:27;35.83;;;24.50;;
4359;SDS011;2193;47.980;7.660;2022-08-19T12:49:53;27.37;;;24.47;;
4359;SDS011;2193;47.980;7.660;2022-08-19T12:52:19;28.47;;;23.57;;
4359;SDS011;2193;47.980;7.660;2022-08-19T12:54:46;32.03;;;24.10;;
4359;SDS011;2193;47.980;7.660;2022-08-19T12:57:11;25.97;;;23.27;;
4359;SDS011;2193;47.980;7.660;2022-08-19T12:59:37;28.40;;;23.77;;
4359;SDS011;2193;47.980;7.660;2022-08-19T13:02:03;24.00;;;21.40;;
4359;SDS011;2193;47.980;7.660;2022-08-19T13:04:31;25.13;;;21.80;;
4359;SDS011;2193;47.980;7.660;2022-08-19T13:06:56;28.60;;;23.13;;
4359;SDS011;2193;47.980;7.660;2022-08-19T13:09:22;24.00;;;21.60;;
4359;SDS011;2193;47.980;7.660;2022-08-19T13:11:47;24.53;;;22.13;;
4359;SDS011;2193;47.980;7.660;2022-08-19T13:14:13;25.17;;;22.40;;
4359;SDS011;2193;47.980;7.660;2022-08-19T13:16:38;21.10;;;19.03;;
4359;SDS011;2193;47.980;7.660;2022-08-19T13:19:03;19.10;;;17.20;;
4359;SDS011;2193;47.980;7.660;2022-08-19T13:21:30;20.10;;;18.00;;
4359;SDS011;2193;47.980;7.660;2022-08-19T13:23:55;20.30;;;17.63;;
4359;SDS011;2193;47.980;7.660;2022-08-19T13:26:21;18.10;;;16.40;;
4359;SDS011;2193;47.980;7.660;2022-08-19T13:28:46;18.53;;;15.70;;
4359;SDS011;2193;47.980;7.660;2022-08-19T13:31:31;17.57;;;15.57;;
4359;SDS011;2193;47.980;7.660;2022-08-19T13:34:16;16.77;;;15.30;;
4359;SDS011;2193;47.980;7.660;2022-08-19T13:36:42;15.43;;;14.03;;
4359;SDS011;2193;47.980;7.660;2022-08-19T13:39:07;16.90;;;15.37;;
4359;SDS011;2193;47.980;7.660;2022-08-19T13:41:33;18.70;;;17.00;;
4359;SDS011;2193;47.980;7.660;2022-08-19T13:43:59;21.10;;;18.90;;
4359;SDS011;2193;47.980;7.660;2022-08-19T13:46:24;19.50;;;17.70;;
4359;SDS011;2193;47.980;7.660;2022-08-19T13:48:49;19.43;;;17.63;;
4359;SDS011;2193;47.980;7.660;2022-08-19T13:51:15;19.23;;;17.43;;
4359;SDS011;2193;47.980;7.660;2022-08-19T13:53:41;19.43;;;17.53;;
4359;SDS011;2193;47.980;7.660;2022-08-19T13:56:10;20.60;;;17.80;;
4359;SDS011;2193;47.980;7.660;2022-08-19T13:58:36;25.03;;;19.90;;
4359;SDS011;2193;47.980;7.660;2022-08-19T14:01:02;22.10;;;19.97;;
4359;SDS011;2193;47.980;7.660;2022-08-19T14:03:28;22.87;;;20.33;;
4359;SDS011;2193;47.980;7.660;2022-08-19T14:05:53;22.13;;;20.00;;
4359;SDS011;2193;47.980;7.660;2022-08-19T14:08:18;26.07;;;23.47;;
4359;SDS011;2193;47.980;7.660;2022-08-19T14:10:44;23.77;;;21.40;;
4359;SDS011;2193;47.980;7.660;2022-08-19T14:13:12;25.10;;;20.57;;
4359;SDS011;2193;47.980;7.660;2022-08-19T14:15:37;23.70;;;21.30;;
4359;SDS011;2193;47.980;7.660;2022-08-19T14:18:02;22.57;;;20.27;;
4359;SDS011;2193;47.980;7.660;2022-08-19T14:20:28;22.37;;;20.20;;
4359;SDS011;2193;47.980;7.660;2022-08-19T14:22:53;23.33;;;20.90;;
4359;SDS011;2193;47.980;7.660;2022-08-19T14:25:23;24.20;;;20.20;;
4359;SDS011;2193;47.980;7.660;2022-08-19T14:27:48;21.93;;;19.73;;
4359;SDS011;2193;47.980;7.660;2022-08-19T14:30:15;22.70;;;20.40;;
4359;SDS011;2193;47.980;7.660;2022-08-19T14:32:40;20.20;;;18.20;;
4359;SDS011;2193;47.980;7.660;2022-08-19T14:35:08;19.10;;;17.10;;
4359;SDS011;2193;47.980;7.660;2022-08-19T14:37:34;20.33;;;18.33;;
4359;SDS011;2193;47.980;7.660;2022-08-19T14:40:00;18.90;;;16.90;;
4359;SDS011;2193;47.980;7.660;2022-08-19T14:42:25;18.63;;;16.63;;
4359;SDS011;2193;47.980;7.660;2022-08-19T14:44:50;19.07;;;16.90;;
4359;SDS011;2193;47.980;7.660;2022-08-19T14:47:15;19.67;;;16.90;;
4359;SDS011;2193;47.980;7.660;2022-08-19T14:49:41;18.80;;;17.00;;
4359;SDS011;2193;47.980;7.660;2022-08-19T14:52:06;18.87;;;16.20;;
4359;SDS011;2193;47.980;7.660;2022-08-19T14:54:31;17.90;;;15.93;;